createdAt,value
2023-04-04T00:00:17.591Z,1.59
2023-04-04T00:05:44.578Z,1.51
2023-04-04T00:10:36.939Z,1.43
2023-04-04T00:15:36.884Z,1.35
2023-04-04T00:20:36.833Z,1.26
2023-04-04T00:25:36.768Z,1.17
2023-04-04T00:30:36.697Z,1.09
2023-04-04T00:35:36.638Z,1.01
2023-04-04T00:40:36.601Z,0.94
2023-04-04T00:45:36.557Z,0.88
2023-04-04T00:50:36.446Z,0.83
2023-04-04T00:55:36.372Z,0.79
2023-04-04T01:00:36.295Z,0.76
2023-04-04T01:05:36.276Z,0.73
2023-04-04T01:10:36.170Z,0.70
2023-04-04T01:15:36.106Z,0.68
2023-04-04T01:20:36.036Z,0.67
2023-04-04T01:25:35.994Z,0.68
2023-04-04T01:30:35.943Z,0.70
2023-04-04T01:35:35.895Z,0.73
2023-04-04T01:40:35.800Z,0.76
2023-04-04T01:45:35.734Z,0.80
2023-04-04T01:50:35.662Z,0.83
2023-04-04T01:55:35.607Z,0.86
2023-04-04T02:00:35.521Z,0.91
2023-04-04T02:05:35.487Z,0.95
2023-04-04T02:10:35.419Z,0.98
2023-04-04T02:15:35.395Z,1.00
2023-04-04T02:20:35.268Z,1.00
2023-04-04T02:25:35.229Z,0.99
2023-04-04T02:30:35.194Z,0.98
2023-04-04T02:35:35.131Z,0.96
2023-04-04T02:40:35.000Z,0.94
2023-04-04T02:45:34.956Z,0.92
2023-04-04T02:50:34.901Z,0.89
2023-04-04T02:55:34.843Z,0.86
2023-04-04T03:00:34.732Z,0.83
2023-04-04T03:05:34.709Z,0.80
2023-04-04T03:10:34.645Z,0.77
2023-04-04T03:15:34.593Z,0.74
2023-04-04T03:20:34.522Z,0.71
2023-04-04T03:25:34.446Z,0.69
2023-04-04T03:30:34.373Z,0.66
2023-04-04T03:35:34.332Z,0.64
2023-04-04T03:40:34.261Z,0.64
2023-04-04T03:45:34.164Z,0.64
2023-04-04T03:50:34.117Z,0.64
2023-04-04T03:55:34.058Z,0.64
2023-04-04T04:00:33.987Z,0.64
2023-04-04T04:05:33.929Z,0.63
2023-04-04T04:10:33.865Z,0.61
2023-04-04T04:15:48.317Z,0.59
2023-04-04T04:20:40.728Z,0.57
2023-04-04T04:25:40.541Z,0.55
2023-04-04T04:30:40.767Z,0.52
2023-04-04T04:35:40.428Z,0.51
2023-04-04T04:40:40.524Z,0.50
2023-04-04T04:45:40.270Z,0.49
2023-04-04T04:50:40.320Z,0.49
2023-04-04T04:55:40.130Z,0.49
2023-04-04T05:00:40.243Z,0.50
2023-04-04T05:05:40.020Z,0.52
2023-04-04T05:10:40.114Z,0.55
2023-04-04T05:15:40.688Z,0.59
2023-04-04T05:20:39.922Z,0.64
2023-04-04T05:25:39.762Z,0.70
2023-04-04T05:30:39.853Z,0.77
2023-04-04T05:35:39.673Z,0.84
2023-04-04T05:40:39.687Z,0.89
2023-04-04T05:45:40.710Z,0.91
2023-04-04T05:50:40.432Z,0.92
2023-04-04T05:55:39.399Z,0.95
2023-04-04T06:00:39.563Z,1.00
2023-04-04T06:05:39.264Z,1.08
2023-04-04T06:10:39.289Z,1.18
2023-04-04T06:15:39.116Z,1.29
2023-04-04T06:20:39.224Z,1.42
2023-04-04T06:25:38.988Z,1.57
2023-04-04T06:30:39.060Z,1.72
2023-04-04T06:35:38.843Z,1.89
2023-04-04T06:40:39.001Z,2.08
2023-04-04T06:45:39.115Z,2.34
2023-04-04T06:50:38.915Z,4.80
2023-04-04T06:55:38.589Z,9.23
2023-04-04T07:00:38.900Z,13.13
2023-04-04T07:05:38.441Z,15.71
2023-04-04T07:10:39.786Z,17.42
2023-04-04T07:15:38.363Z,18.64
2023-04-04T07:20:38.451Z,19.58
2023-04-04T07:25:38.240Z,20.60
2023-04-04T07:30:38.381Z,21.82
2023-04-04T07:35:38.142Z,23.08
2023-04-04T07:40:38.462Z,24.05
2023-04-04T07:45:37.970Z,24.60
2023-04-04T07:50:38.122Z,25.00
2023-04-04T07:55:37.800Z,25.51
2023-04-04T08:00:37.964Z,26.14
2023-04-04T08:05:37.644Z,26.58
2023-04-04T08:10:37.902Z,26.68
2023-04-04T08:15:37.573Z,26.49
2023-04-04T08:20:37.609Z,26.14
2023-04-04T08:25:37.371Z,25.79
2023-04-04T08:30:37.520Z,25.33
2023-04-04T08:35:37.293Z,24.81
2023-04-04T08:40:37.380Z,24.42
2023-04-04T08:45:37.125Z,24.12
2023-04-04T08:50:37.197Z,23.86
2023-04-04T08:55:36.992Z,23.64
2023-04-04T09:00:36.971Z,23.61
2023-04-04T09:05:36.986Z,23.96
2023-04-04T09:10:36.787Z,24.59
2023-04-04T09:15:36.766Z,25.42
2023-04-04T09:20:36.733Z,26.41
2023-04-04T09:25:36.620Z,27.27
2023-04-04T09:30:36.566Z,27.94
2023-04-04T09:35:36.502Z,28.60
2023-04-04T09:40:36.419Z,29.28
2023-04-04T09:45:36.368Z,30.09
2023-04-04T09:50:36.268Z,31.00
2023-04-04T09:55:36.265Z,31.86
2023-04-04T10:00:36.244Z,32.65
2023-04-04T10:05:36.122Z,33.45
2023-04-04T10:10:36.035Z,34.06
2023-04-04T10:15:36.119Z,34.35
2023-04-04T10:20:35.859Z,34.42
2023-04-04T10:25:35.823Z,34.47
2023-04-04T10:30:35.741Z,34.57
2023-04-04T10:35:35.739Z,34.60
2023-04-04T10:40:35.575Z,34.54
2023-04-04T10:45:35.528Z,34.51
2023-04-04T10:50:35.468Z,34.50
2023-04-04T10:55:35.379Z,34.51
2023-04-04T11:00:36.299Z,34.43
2023-04-04T11:05:35.292Z,34.18
2023-04-04T11:10:35.336Z,33.82
2023-04-04T11:15:35.132Z,33.49
2023-04-04T11:20:35.045Z,33.21
2023-04-04T11:25:35.034Z,32.97
2023-04-04T11:30:34.913Z,32.73
2023-04-04T11:35:34.902Z,32.54
2023-04-04T11:40:34.821Z,32.32
2023-04-04T11:45:34.737Z,31.97
2023-04-04T11:50:34.681Z,31.54
2023-04-04T11:55:34.613Z,31.07
2023-04-04T12:00:34.532Z,30.49
2023-04-04T12:05:34.487Z,29.88
2023-04-04T12:10:34.384Z,29.41
2023-04-04T12:15:34.351Z,29.02
2023-04-04T12:20:34.281Z,28.54
2023-04-04T12:25:34.327Z,27.80
2023-04-04T12:30:34.134Z,26.95
2023-04-04T12:35:34.091Z,26.16
2023-04-04T12:40:34.010Z,25.42
2023-04-04T12:45:33.974Z,24.65
2023-04-04T12:50:33.880Z,23.82
2023-04-04T12:55:33.836Z,23.03
2023-04-04T13:00:33.731Z,22.36
2023-04-04T13:05:33.665Z,21.79
2023-04-04T13:10:33.615Z,21.23
2023-04-04T13:15:33.541Z,20.71
2023-04-04T13:20:33.493Z,20.33
2023-04-04T13:25:33.412Z,20.02
2023-04-04T13:30:33.393Z,19.73
2023-04-04T13:35:33.274Z,19.41
2023-04-04T13:40:33.188Z,19.05
2023-04-04T13:45:33.152Z,18.61
2023-04-04T13:50:33.066Z,18.23
2023-04-04T13:55:33.024Z,18.00
2023-04-04T14:00:32.923Z,17.88
2023-04-04T14:05:32.890Z,17.78
2023-04-04T14:10:32.834Z,17.67
2023-04-04T14:15:32.832Z,17.58
2023-04-04T14:20:34.701Z,17.55
2023-04-04T14:25:32.620Z,17.50
2023-04-04T14:30:32.533Z,17.32
2023-04-04T14:35:32.475Z,16.91
2023-04-04T14:40:32.423Z,16.52
2023-04-04T14:45:32.443Z,16.37
2023-04-04T14:50:32.293Z,16.39
2023-04-04T14:55:32.217Z,16.41
2023-04-04T15:00:32.114Z,16.39
2023-04-04T15:05:32.098Z,16.35
2023-04-04T15:10:32.044Z,16.27
2023-04-04T15:15:31.921Z,16.09
2023-04-04T15:20:31.864Z,15.93
2023-04-04T15:25:31.814Z,15.78
2023-04-04T15:30:31.722Z,15.64
2023-04-04T15:35:31.697Z,15.59
2023-04-04T15:40:31.653Z,15.57
2023-04-04T15:45:31.531Z,15.49
2023-04-04T15:50:31.458Z,15.36
2023-04-04T15:55:31.438Z,15.20
2023-04-04T16:00:31.318Z,15.04
2023-04-04T16:05:31.291Z,14.85
2023-04-04T16:10:31.209Z,14.65
2023-04-04T16:15:31.169Z,14.42
2023-04-04T16:20:31.079Z,14.17
2023-04-04T16:25:31.038Z,13.93
2023-04-04T16:30:30.960Z,13.71
2023-04-04T16:35:30.870Z,13.47
2023-04-04T16:40:30.826Z,13.23
2023-04-04T16:45:30.733Z,13.00
2023-04-04T16:50:30.727Z,12.79
2023-04-04T16:55:30.609Z,12.58
2023-04-04T17:00:32.979Z,12.38
2023-04-04T17:05:30.469Z,12.18
2023-04-04T17:10:30.409Z,11.97
2023-04-04T17:15:30.340Z,11.75
2023-04-04T17:20:31.484Z,11.51
2023-04-04T17:25:30.193Z,11.24
2023-04-04T17:30:30.168Z,10.96
2023-04-04T17:35:30.069Z,10.70
2023-04-04T17:40:30.067Z,10.46
2023-04-04T17:45:29.940Z,10.23
2023-04-04T17:50:29.899Z,10.00
2023-04-04T17:55:29.836Z,9.78
2023-04-04T18:00:29.797Z,9.56
2023-04-04T18:05:29.746Z,9.35
2023-04-04T18:10:29.658Z,9.13
2023-04-04T18:15:30.589Z,8.89
2023-04-04T18:20:42.533Z,8.66
2023-04-04T18:25:30.410Z,8.41
2023-04-04T18:30:29.387Z,8.15
2023-04-04T18:35:29.299Z,7.89
2023-04-04T18:40:29.652Z,7.63
2023-04-04T18:45:39.294Z,7.38
2023-04-04T18:50:30.110Z,7.14
2023-04-04T18:55:29.990Z,6.94
2023-04-04T19:00:29.019Z,6.75
2023-04-04T19:05:28.922Z,6.58
2023-04-04T19:10:28.852Z,6.42
2023-04-04T19:15:28.772Z,6.27
2023-04-04T19:20:28.712Z,6.14
2023-04-04T19:25:28.632Z,6.02
2023-04-04T19:30:28.607Z,5.91
2023-04-04T19:35:28.539Z,5.83
2023-04-04T19:40:29.404Z,5.75
2023-04-04T19:45:28.390Z,5.68
2023-04-04T19:50:28.379Z,5.60
2023-04-04T19:55:28.282Z,5.52
2023-04-04T20:00:28.205Z,5.43
2023-04-04T20:05:28.430Z,5.35
2023-04-04T20:10:28.067Z,5.28
2023-04-04T20:15:27.994Z,5.22
2023-04-04T20:20:27.965Z,5.18
2023-04-04T20:25:28.798Z,5.13
2023-04-04T20:30:27.812Z,5.10
2023-04-04T20:35:27.774Z,5.06
2023-04-04T20:40:27.781Z,5.00
2023-04-04T20:45:28.562Z,4.94
2023-04-04T20:50:27.576Z,4.87
2023-04-04T20:55:27.456Z,4.81
2023-04-04T21:00:27.447Z,4.76
2023-04-04T21:05:27.366Z,4.73
2023-04-04T21:10:27.308Z,4.70
2023-04-04T21:15:27.205Z,4.69
2023-04-04T21:20:27.138Z,4.69
2023-04-04T21:25:27.077Z,4.71
2023-04-04T21:30:27.021Z,4.74
2023-04-04T21:35:26.970Z,4.79
2023-04-04T21:40:26.913Z,4.85
2023-04-04T21:45:26.837Z,4.91
2023-04-04T21:50:26.756Z,4.99
2023-04-04T21:55:26.702Z,5.07
2023-04-04T22:00:26.625Z,5.15
2023-04-04T22:05:38.133Z,5.22
2023-04-04T22:10:27.489Z,5.29
2023-04-04T22:15:26.432Z,5.35
2023-04-04T22:20:26.390Z,5.38
2023-04-04T22:25:26.322Z,5.41
2023-04-04T22:30:26.291Z,5.42
2023-04-04T22:35:26.155Z,5.42
2023-04-04T22:40:26.129Z,5.41
2023-04-04T22:45:26.062Z,5.39
2023-04-04T22:50:25.995Z,5.36
2023-04-04T22:55:25.929Z,5.34
2023-04-04T23:00:25.874Z,5.30
2023-04-04T23:05:25.777Z,5.25
2023-04-04T23:10:25.733Z,5.18
2023-04-04T23:15:25.655Z,5.08
2023-04-04T23:20:25.645Z,4.94
2023-04-04T23:25:25.518Z,4.79
2023-04-04T23:30:25.487Z,4.62
2023-04-04T23:35:25.438Z,4.46
2023-04-04T23:40:25.352Z,4.29
2023-04-04T23:45:25.282Z,4.11
2023-04-04T23:50:25.246Z,3.91
2023-04-04T23:55:25.124Z,3.74
